sensor_id;sensor_type;location;lat;lon;timestamp;pressure;altitude;pressure_sealevel;temperature;humidity
17635;BME280;8936;49.010;12.120;2023-05-10T00:02:13;97212.25;;;18.75;75.82
17635;BME280;8936;49.010;12.120;2023-05-10T00:04:39;97209.59;;;18.87;74.73
17635;BME280;8936;49.010;12.120;2023-05-10T00:07:06;97209.88;;;19.06;73.18
17635;BME280;8936;49.010;12.120;2023-05-10T00:09:32;97203.66;;;19.06;73.05
17635;BME280;8936;49.010;12.120;2023-05-10T00:12:00;97204.38;;;19.15;72.61
17635;BME280;8936;49.010;12.120;2023-05-10T00:14:26;97206.28;;;19.26;71.53
17635;BME280;8936;49.010;12.120;2023-05-10T00:16:53;97198.06;;;19.35;70.85
17635;BME280;8936;49.010;12.120;2023-05-10T00:19:19;97204.88;;;19.41;70.16
17635;BME280;8936;49.010;12.120;2023-05-10T00:21:45;97206.47;;;19.42;70.21
17635;BME280;8936;49.010;12.120;2023-05-10T00:24:12;97203.91;;;19.25;71.07
17635;BME280;8936;49.010;12.120;2023-05-10T00:26:38;97203.03;;;19.21;72.26
17635;BME280;8936;49.010;12.120;2023-05-10T00:29:06;97201.97;;;19.13;72.96
17635;BME280;8936;49.010;12.120;2023-05-10T00:31:32;97205.16;;;19.15;72.98
17635;BME280;8936;49.010;12.120;2023-05-10T00:33:59;97200.88;;;19.26;72.28
17635;BME280;8936;49.010;12.120;2023-05-10T00:36:25;97198.53;;;19.37;71.50
17635;BME280;8936;49.010;12.120;2023-05-10T00:38:52;97188.63;;;19.41;71.06
17635;BME280;8936;49.010;12.120;2023-05-10T00:41:19;97198.41;;;19.21;72.08
17635;BME280;8936;49.010;12.120;2023-05-10T00:43:46;97193.84;;;19.13;73.26
17635;BME280;8936;49.010;12.120;2023-05-10T00:46:13;97187.88;;;18.63;76.72
17635;BME280;8936;49.010;12.120;2023-05-10T00:48:40;97190.75;;;18.58;78.37
17635;BME280;8936;49.010;12.120;2023-05-10T00:51:06;97201.56;;;18.37;79.79
17635;BME280;8936;49.010;12.120;2023-05-10T00:53:33;97203.41;;;18.04;82.73
17635;BME280;8936;49.010;12.120;2023-05-10T00:56:00;97204.09;;;17.63;85.43
17635;BME280;8936;49.010;12.120;2023-05-10T00:58:28;97192.03;;;17.52;87.96
17635;BME280;8936;49.010;12.120;2023-05-10T01:00:55;97200.81;;;17.40;89.53
17635;BME280;8936;49.010;12.120;2023-05-10T01:03:24;97198.09;;;17.49;89.39
17635;BME280;8936;49.010;12.120;2023-05-10T01:05:50;97201.97;;;17.39;90.63
17635;BME280;8936;49.010;12.120;2023-05-10T01:08:17;97198.34;;;17.73;89.31
17635;BME280;8936;49.010;12.120;2023-05-10T01:10:44;97197.94;;;17.83;87.94
17635;BME280;8936;49.010;12.120;2023-05-10T01:13:10;97189.66;;;17.88;87.65
17635;BME280;8936;49.010;12.120;2023-05-10T01:15:37;97217.19;;;17.82;87.99
17635;BME280;8936;49.010;12.120;2023-05-10T01:18:04;97209.31;;;17.97;86.92
17635;BME280;8936;49.010;12.120;2023-05-10T01:20:34;97205.84;;;17.59;89.26
17635;BME280;8936;49.010;12.120;2023-05-10T01:23:10;97207.97;;;17.45;91.34
17635;BME280;8936;49.010;12.120;2023-05-10T01:26:02;97207.63;;;17.55;91.70
17635;BME280;8936;49.010;12.120;2023-05-10T01:28:44;97203.75;;;17.73;90.22
17635;BME280;8936;49.010;12.120;2023-05-10T01:31:22;97202.94;;;18.22;86.73
17635;BME280;8936;49.010;12.120;2023-05-10T01:33:56;97203.59;;;18.61;82.78
17635;BME280;8936;49.010;12.120;2023-05-10T01:36:25;97215.94;;;18.70;81.64
17635;BME280;8936;49.010;12.120;2023-05-10T01:38:55;97209.41;;;18.51;83.26
17635;BME280;8936;49.010;12.120;2023-05-10T01:41:24;97210.31;;;18.34;84.86
17635;BME280;8936;49.010;12.120;2023-05-10T01:43:54;97213.75;;;18.22;85.82
17635;BME280;8936;49.010;12.120;2023-05-10T01:46:24;97217.03;;;17.78;89.20
17635;BME280;8936;49.010;12.120;2023-05-10T01:48:53;97217.25;;;17.73;90.45
17635;BME280;8936;49.010;12.120;2023-05-10T01:51:21;97219.34;;;17.59;91.63
17635;BME280;8936;49.010;12.120;2023-05-10T01:53:49;97214.88;;;17.16;93.95
17635;BME280;8936;49.010;12.120;2023-05-10T01:56:17;97209.97;;;17.10;96.50
17635;BME280;8936;49.010;12.120;2023-05-10T01:58:46;97208.22;;;17.05;96.86
17635;BME280;8936;49.010;12.120;2023-05-10T02:01:14;97215.13;;;16.86;97.73
17635;BME280;8936;49.010;12.120;2023-05-10T02:03:41;97215.94;;;17.33;94.46
17635;BME280;8936;49.010;12.120;2023-05-10T02:06:08;97211.97;;;17.30;94.91
17635;BME280;8936;49.010;12.120;2023-05-10T02:08:38;97208.09;;;16.93;97.46
17635;BME280;8936;49.010;12.120;2023-05-10T02:11:05;97209.59;;;16.56;100.00
17635;BME280;8936;49.010;12.120;2023-05-10T02:13:32;97200.50;;;16.44;100.00
17635;BME280;8936;49.010;12.120;2023-05-10T02:16:01;97201.00;;;16.71;100.00
17635;BME280;8936;49.010;12.120;2023-05-10T02:18:29;97209.69;;;16.94;100.00
17635;BME280;8936;49.010;12.120;2023-05-10T02:20:56;97211.72;;;17.61;96.17
17635;BME280;8936;49.010;12.120;2023-05-10T02:23:23;97206.56;;;18.26;90.44
17635;BME280;8936;49.010;12.120;2023-05-10T02:25:53;97208.28;;;18.10;92.37
17635;BME280;8936;49.010;12.120;2023-05-10T02:28:19;97205.81;;;17.97;94.04
17635;BME280;8936;49.010;12.120;2023-05-10T02:30:47;97209.41;;;17.42;99.07
17635;BME280;8936;49.010;12.120;2023-05-10T02:33:13;97210.81;;;17.48;99.65
17635;BME280;8936;49.010;12.120;2023-05-10T02:35:40;97214.28;;;17.49;99.82
17635;BME280;8936;49.010;12.120;2023-05-10T02:38:07;97211.22;;;17.67;97.57
17635;BME280;8936;49.010;12.120;2023-05-10T02:40:34;97211.03;;;18.02;94.52
17635;BME280;8936;49.010;12.120;2023-05-10T02:43:03;97218.44;;;17.84;96.43
17635;BME280;8936;49.010;12.120;2023-05-10T02:45:30;97217.59;;;17.92;96.54
17635;BME280;8936;49.010;12.120;2023-05-10T02:47:57;97210.84;;;17.77;98.61
17635;BME280;8936;49.010;12.120;2023-05-10T02:50:25;97207.66;;;17.38;100.00
17635;BME280;8936;49.010;12.120;2023-05-10T02:52:52;97203.25;;;17.24;100.00
17635;BME280;8936;49.010;12.120;2023-05-10T02:55:21;97202.84;;;17.05;100.00
17635;BME280;8936;49.010;12.120;2023-05-10T02:57:49;97202.13;;;16.79;100.00
17635;BME280;8936;49.010;12.120;2023-05-10T03:00:18;97206.09;;;16.73;100.00
17635;BME280;8936;49.010;12.120;2023-05-10T03:02:45;97202.94;;;16.71;100.00
17635;BME280;8936;49.010;12.120;2023-05-10T03:05:11;97204.81;;;16.79;100.00
17635;BME280;8936;49.010;12.120;2023-05-10T03:07:37;97208.13;;;16.85;100.00
17635;BME280;8936;49.010;12.120;2023-05-10T03:10:04;97207.31;;;17.01;100.00
17635;BME280;8936;49.010;12.120;2023-05-10T03:12:33;97217.66;;;16.82;100.00
17635;BME280;8936;49.010;12.120;2023-05-10T03:15:03;97204.97;;;16.48;100.00
17635;BME280;8936;49.010;12.120;2023-05-10T03:17:34;97201.13;;;16.84;100.00
17635;BME280;8936;49.010;12.120;2023-05-10T03:20:03;97205.41;;;17.02;100.00
17635;BME280;8936;49.010;12.120;2023-05-10T03:22:30;97199.81;;;17.15;100.00
17635;BME280;8936;49.010;12.120;2023-05-10T03:24:57;97202.88;;;16.97;100.00
17635;BME280;8936;49.010;12.120;2023-05-10T03:27:23;97210.03;;;16.93;100.00
17635;BME280;8936;49.010;12.120;2023-05-10T03:29:51;97206.88;;;16.73;100.00
17635;BME280;8936;49.010;12.120;2023-05-10T03:32:18;97210.66;;;16.90;100.00
17635;BME280;8936;49.010;12.120;2023-05-10T03:34:46;97210.03;;;16.93;100.00
17635;BME280;8936;49.010;12.120;2023-05-10T03:37:12;97211.28;;;16.87;100.00
17635;BME280;8936;49.010;12.120;2023-05-10T03:39:39;97222.44;;;16.68;100.00
17635;BME280;8936;49.010;12.120;2023-05-10T03:42:05;97212.91;;;16.70;100.00
17635;BME280;8936;49.010;12.120;2023-05-10T03:44:32;97219.72;;;16.59;100.00
17635;BME280;8936;49.010;12.120;2023-05-10T03:46:59;97219.72;;;16.42;100.00
17635;BME280;8936;49.010;12.120;2023-05-10T03:49:25;97216.88;;;16.56;100.00
17635;BME280;8936;49.010;12.120;2023-05-10T03:51:53;97221.94;;;16.49;100.00
17635;BME280;8936;49.010;12.120;2023-05-10T03:54:19;97228.56;;;16.17;100.00
17635;BME280;8936;49.010;12.120;2023-05-10T03:56:45;97229.72;;;15.68;100.00
17635;BME280;8936;49.010;12.120;2023-05-10T03:59:12;97227.84;;;15.69;100.00
17635;BME280;8936;49.010;12.120;2023-05-10T04:01:39;97233.63;;;16.10;100.00
17635;BME280;8936;49.010;12.120;2023-05-10T04:04:05;97232.59;;;16.71;100.00
17635;BME280;8936;49.010;12.120;2023-05-10T04:06:32;97235.50;;;17.30;100.00
17635;BME280;8936;49.010;12.120;2023-05-10T04:09:00;97243.09;;;17.74;100.00
17635;BME280;8936;49.010;12.120;2023-05-10T04:11:29;97240.63;;;17.52;100.00
17635;BME280;8936;49.010;12.120;2023-05-10T04:13:55;97233.03;;;16.39;100.00
17635;BME280;8936;49.010;12.120;2023-05-10T04:16:21;97238.28;;;15.79;100.00
17635;BME280;8936;49.010;12.120;2023-05-10T04:18:48;97244.38;;;16.01;100.00
17635;BME280;8936;49.010;12.120;2023-05-10T04:21:14;97246.34;;;16.44;100.00
17635;BME280;8936;49.010;12.120;2023-05-10T04:23:40;97242.06;;;16.94;100.00
17635;BME280;8936;49.010;12.120;2023-05-10T04:26:08;97242.41;;;16.67;100.00
17635;BME280;8936;49.010;12.120;2023-05-10T04:28:34;97244.81;;;15.86;100.00
17635;BME280;8936;49.010;12.120;2023-05-10T04:31:01;97253.34;;;15.40;100.00
17635;BME280;8936;49.010;12.120;2023-05-10T04:33:28;97254.91;;;15.10;100.00
17635;BME280;8936;49.010;12.120;2023-05-10T04:35:54;97259.56;;;15.19;100.00
17635;BME280;8936;49.010;12.120;2023-05-10T04:38:20;97252.53;;;15.40;100.00
17635;BME280;8936;49.010;12.120;2023-05-10T04:40:47;97253.31;;;15.09;100.00
17635;BME280;8936;49.010;12.120;2023-05-10T04:43:14;97265.63;;;15.33;100.00
17635;BME280;8936;49.010;12.120;2023-05-10T04:45:41;97263.56;;;15.30;100.00
17635;BME280;8936;49.010;12.120;2023-05-10T04:48:07;97257.28;;;15.12;100.00
17635;BME280;8936;49.010;12.120;2023-05-10T04:50:34;97264.75;;;15.46;100.00
17635;BME280;8936;49.010;12.120;2023-05-10T04:53:00;97262.84;;;15.46;100.00
17635;BME280;8936;49.010;12.120;2023-05-10T04:55:27;97262.22;;;15.80;100.00
17635;BME280;8936;49.010;12.120;2023-05-10T04:57:53;97265.59;;;15.55;100.00
17635;BME280;8936;49.010;12.120;2023-05-10T05:00:23;97265.09;;;15.22;100.00
17635;BME280;8936;49.010;12.120;2023-05-10T05:02:49;97267.16;;;14.94;100.00
17635;BME280;8936;49.010;12.120;2023-05-10T05:05:16;97268.44;;;14.97;100.00
17635;BME280;8936;49.010;12.120;2023-05-10T05:07:43;97274.56;;;15.20;100.00
17635;BME280;8936;49.010;12.120;2023-05-10T05:10:09;97274.84;;;14.87;100.00
17635;BME280;8936;49.010;12.120;2023-05-10T05:12:35;97279.00;;;14.71;100.00
17635;BME280;8936;49.010;12.120;2023-05-10T05:15:02;97285.34;;;14.75;100.00
17635;BME280;8936;49.010;12.120;2023-05-10T05:17:30;97284.19;;;14.90;100.00
17635;BME280;8936;49.010;12.120;2023-05-10T05:19:57;97289.59;;;14.76;100.00
17635;BME280;8936;49.010;12.120;2023-05-10T05:22:23;97291.34;;;14.72;100.00
17635;BME280;8936;49.010;12.120;2023-05-10T05:24:52;97296.75;;;14.58;100.00
17635;BME280;8936;49.010;12.120;2023-05-10T05:27:18;97302.78;;;15.00;100.00
17635;BME280;8936;49.010;12.120;2023-05-10T05:29:46;97304.56;;;15.97;100.00
17635;BME280;8936;49.010;12.120;2023-05-10T05:32:12;97302.41;;;15.68;100.00
17635;BME280;8936;49.010;12.120;2023-05-10T05:34:40;97312.56;;;15.71;100.00
17635;BME280;8936;49.010;12.120;2023-05-10T05:37:06;97311.88;;;14.90;100.00
17635;BME280;8936;49.010;12.120;2023-05-10T05:39:32;97314.34;;;14.65;100.00
17635;BME280;8936;49.010;12.120;2023-05-10T05:41:58;97324.19;;;14.69;100.00
17635;BME280;8936;49.010;12.120;2023-05-10T05:44:25;97319.44;;;15.10;100.00
17635;BME280;8936;49.010;12.120;2023-05-10T05:46:53;97321.69;;;15.39;100.00
17635;BME280;8936;49.010;12.120;2023-05-10T05:49:20;97323.06;;;15.81;100.00
17635;BME280;8936;49.010;12.120;2023-05-10T05:51:47;97323.47;;;14.99;100.00
17635;BME280;8936;49.010;12.120;2023-05-10T05:54:14;97337.31;;;14.71;100.00
17635;BME280;8936;49.010;12.120;2023-05-10T05:56:40;97334.16;;;14.69;100.00
17635;BME280;8936;49.010;12.120;2023-05-10T05:59:07;97334.53;;;14.76;100.00
17635;BME280;8936;49.010;12.120;2023-05-10T06:01:33;97341.50;;;14.99;100.00
17635;BME280;8936;49.010;12.120;2023-05-10T06:04:00;97334.63;;;15.29;100.00
17635;BME280;8936;49.010;12.120;2023-05-10T06:06:26;97333.25;;;15.40;100.00
17635;BME280;8936;49.010;12.120;2023-05-10T06:08:54;97339.44;;;15.40;100.00
17635;BME280;8936;49.010;12.120;2023-05-10T06:11:20;97341.44;;;15.57;100.00
17635;BME280;8936;49.010;12.120;2023-05-10T06:13:47;97343.84;;;15.58;100.00
17635;BME280;8936;49.010;12.120;2023-05-10T06:16:13;97343.88;;;15.67;100.00
17635;BME280;8936;49.010;12.120;2023-05-10T06:18:39;97337.88;;;15.70;100.00
17635;BME280;8936;49.010;12.120;2023-05-10T06:21:06;97350.06;;;15.68;100.00
17635;BME280;8936;49.010;12.120;2023-05-10T06:23:32;97350.63;;;16.35;100.00
17635;BME280;8936;49.010;12.120;2023-05-10T06:26:00;97353.00;;;15.57;100.00
17635;BME280;8936;49.010;12.120;2023-05-10T06:28:26;97354.41;;;15.33;100.00
17635;BME280;8936;49.010;12.120;2023-05-10T06:30:53;97367.69;;;15.07;100.00
17635;BME280;8936;49.010;12.120;2023-05-10T06:33:19;97362.09;;;14.81;100.00
17635;BME280;8936;49.010;12.120;2023-05-10T06:35:45;97372.22;;;14.84;100.00
17635;BME280;8936;49.010;12.120;2023-05-10T06:38:12;97370.84;;;14.73;100.00
17635;BME280;8936;49.010;12.120;2023-05-10T06:40:40;97370.31;;;15.21;100.00
17635;BME280;8936;49.010;12.120;2023-05-10T06:43:08;97375.91;;;15.10;100.00
17635;BME280;8936;49.010;12.120;2023-05-10T06:45:34;97374.69;;;15.39;100.00
17635;BME280;8936;49.010;12.120;2023-05-10T06:48:01;97375.31;;;14.91;100.00
17635;BME280;8936;49.010;12.120;2023-05-10T06:50:27;97379.53;;;15.06;100.00
17635;BME280;8936;49.010;12.120;2023-05-10T06:52:54;97385.19;;;15.04;100.00
17635;BME280;8936;49.010;12.120;2023-05-10T06:55:20;97385.38;;;15.08;100.00
17635;BME280;8936;49.010;12.120;2023-05-10T06:57:47;97383.97;;;14.88;100.00
17635;BME280;8936;49.010;12.120;2023-05-10T07:00:15;97388.56;;;15.32;100.00
17635;BME280;8936;49.010;12.120;2023-05-10T07:02:41;97382.09;;;15.33;100.00
17635;BME280;8936;49.010;12.120;2023-05-10T07:05:08;97391.47;;;15.36;100.00
17635;BME280;8936;49.010;12.120;2023-05-10T07:07:35;97389.63;;;15.00;100.00
17635;BME280;8936;49.010;12.120;2023-05-10T07:10:01;97395.59;;;15.20;100.00
17635;BME280;8936;49.010;12.120;2023-05-10T07:12:27;97391.91;;;15.51;100.00
17635;BME280;8936;49.010;12.120;2023-05-10T07:14:54;97394.28;;;15.75;100.00
17635;BME280;8936;49.010;12.120;2023-05-10T07:17:21;97394.72;;;15.69;100.00
17635;BME280;8936;49.010;12.120;2023-05-10T07:19:48;97401.34;;;15.93;100.00
17635;BME280;8936;49.010;12.120;2023-05-10T07:22:14;97399.50;;;16.02;100.00
17635;BME280;8936;49.010;12.120;2023-05-10T07:24:41;97404.38;;;16.00;100.00
17635;BME280;8936;49.010;12.120;2023-05-10T07:27:08;97404.44;;;15.78;100.00
17635;BME280;8936;49.010;12.120;2023-05-10T07:29:35;97405.41;;;15.60;100.00
17635;BME280;8936;49.010;12.120;2023-05-10T07:32:01;97410.16;;;15.85;100.00
17635;BME280;8936;49.010;12.120;2023-05-10T07:34:29;97407.00;;;16.23;100.00
17635;BME280;8936;49.010;12.120;2023-05-10T07:36:58;97415.25;;;16.57;100.00
17635;BME280;8936;49.010;12.120;2023-05-10T07:39:25;97398.97;;;16.79;100.00
17635;BME280;8936;49.010;12.120;2023-05-10T07:41:51;97410.25;;;16.42;100.00
17635;BME280;8936;49.010;12.120;2023-05-10T07:44:18;97424.72;;;16.46;100.00
17635;BME280;8936;49.010;12.120;2023-05-10T07:46:45;97416.75;;;16.80;100.00
17635;BME280;8936;49.010;12.120;2023-05-10T07:49:11;97421.31;;;16.32;100.00
17635;BME280;8936;49.010;12.120;2023-05-10T07:51:39;97420.22;;;16.33;100.00
17635;BME280;8936;49.010;12.120;2023-05-10T07:54:06;97423.56;;;16.38;100.00
17635;BME280;8936;49.010;12.120;2023-05-10T07:56:32;97423.75;;;16.50;100.00
17635;BME280;8936;49.010;12.120;2023-05-10T07:58:59;97425.97;;;16.40;100.00
17635;BME280;8936;49.010;12.120;2023-05-10T08:01:26;97424.19;;;16.35;100.00
17635;BME280;8936;49.010;12.120;2023-05-10T08:03:52;97416.94;;;16.53;100.00
17635;BME280;8936;49.010;12.120;2023-05-10T08:06:19;97423.88;;;16.85;100.00
17635;BME280;8936;49.010;12.120;2023-05-10T08:08:47;97425.81;;;16.93;100.00
17635;BME280;8936;49.010;12.120;2023-05-10T08:11:15;97421.63;;;16.78;100.00
17635;BME280;8936;49.010;12.120;2023-05-10T08:13:42;97429.28;;;16.93;100.00
17635;BME280;8936;49.010;12.120;2023-05-10T08:16:08;97425.00;;;16.92;100.00
17635;BME280;8936;49.010;12.120;2023-05-10T08:18:34;97425.25;;;16.65;100.00
17635;BME280;8936;49.010;12.120;2023-05-10T08:21:01;97425.22;;;16.56;100.00
17635;BME280;8936;49.010;12.120;2023-05-10T08:23:27;97432.59;;;16.82;100.00
17635;BME280;8936;49.010;12.120;2023-05-10T08:25:55;97421.69;;;17.12;100.00
17635;BME280;8936;49.010;12.120;2023-05-10T08:28:21;97428.38;;;17.23;100.00
17635;BME280;8936;49.010;12.120;2023-05-10T08:30:49;97435.97;;;17.30;100.00
17635;BME280;8936;49.010;12.120;2023-05-10T08:33:17;97431.06;;;17.32;100.00
17635;BME280;8936;49.010;12.120;2023-05-10T08:35:43;97433.28;;;17.39;100.00
17635;BME280;8936;49.010;12.120;2023-05-10T08:38:10;97433.72;;;16.98;100.00
17635;BME280;8936;49.010;12.120;2023-05-10T08:40:36;97444.00;;;16.87;100.00
17635;BME280;8936;49.010;12.120;2023-05-10T08:43:05;97441.03;;;16.97;100.00
17635;BME280;8936;49.010;12.120;2023-05-10T08:45:32;97450.84;;;16.45;100.00
17635;BME280;8936;49.010;12.120;2023-05-10T08:48:01;97445.81;;;16.52;100.00
17635;BME280;8936;49.010;12.120;2023-05-10T08:50:27;97452.31;;;16.51;100.00
17635;BME280;8936;49.010;12.120;2023-05-10T08:52:55;97449.50;;;16.65;100.00
17635;BME280;8936;49.010;12.120;2023-05-10T08:55:23;97451.09;;;16.66;100.00
17635;BME280;8936;49.010;12.120;2023-05-10T08:57:50;97456.88;;;16.90;100.00
17635;BME280;8936;49.010;12.120;2023-05-10T09:00:18;97450.84;;;16.93;100.00
17635;BME280;8936;49.010;12.120;2023-05-10T09:02:44;97450.09;;;17.10;100.00
17635;BME280;8936;49.010;12.120;2023-05-10T09:05:12;97443.28;;;17.30;100.00
17635;BME280;8936;49.010;12.120;2023-05-10T09:07:40;97450.72;;;17.15;100.00
17635;BME280;8936;49.010;12.120;2023-05-10T09:10:07;97455.22;;;16.63;100.00
17635;BME280;8936;49.010;12.120;2023-05-10T09:12:34;97456.84;;;16.73;100.00
17635;BME280;8936;49.010;12.120;2023-05-10T09:15:00;97457.84;;;16.94;100.00
17635;BME280;8936;49.010;12.120;2023-05-10T09:17:29;97465.00;;;17.07;100.00
17635;BME280;8936;49.010;12.120;2023-05-10T09:19:58;97464.06;;;17.12;100.00
17635;BME280;8936;49.010;12.120;2023-05-10T09:22:25;97452.50;;;17.28;100.00
17635;BME280;8936;49.010;12.120;2023-05-10T09:25:03;97458.56;;;17.60;100.00
17635;BME280;8936;49.010;12.120;2023-05-10T09:27:29;97460.28;;;17.82;100.00
17635;BME280;8936;49.010;12.120;2023-05-10T09:29:55;97454.66;;;17.95;100.00
17635;BME280;8936;49.010;12.120;2023-05-10T09:32:23;97455.28;;;18.09;100.00
17635;BME280;8936;49.010;12.120;2023-05-10T09:35:07;97458.56;;;18.23;100.00
17635;BME280;8936;49.010;12.120;2023-05-10T09:37:33;97454.19;;;18.10;100.00
17635;BME280;8936;49.010;12.120;2023-05-10T09:39:59;97464.06;;;17.98;100.00
17635;BME280;8936;49.010;12.120;2023-05-10T09:42:26;97451.63;;;18.05;100.00
17635;BME280;8936;49.010;12.120;2023-05-10T09:44:52;97460.38;;;18.02;100.00
17635;BME280;8936;49.010;12.120;2023-05-10T09:47:18;97452.88;;;18.16;100.00
17635;BME280;8936;49.010;12.120;2023-05-10T09:49:48;97454.47;;;18.17;100.00
17635;BME280;8936;49.010;12.120;2023-05-10T09:52:16;97455.09;;;18.14;100.00
17635;BME280;8936;49.010;12.120;2023-05-10T09:54:45;97453.34;;;18.18;100.00
17635;BME280;8936;49.010;12.120;2023-05-10T09:57:18;97442.09;;;18.16;100.00
17635;BME280;8936;49.010;12.120;2023-05-10T09:59:45;97450.19;;;18.16;100.00
17635;BME280;8936;49.010;12.120;2023-05-10T10:02:13;97449.41;;;18.07;100.00
17635;BME280;8936;49.010;12.120;2023-05-10T10:04:39;97454.31;;;18.22;100.00
17635;BME280;8936;49.010;12.120;2023-05-10T10:07:06;97450.19;;;18.16;100.00
17635;BME280;8936;49.010;12.120;2023-05-10T10:09:34;97447.44;;;18.25;100.00
17635;BME280;8936;49.010;12.120;2023-05-10T10:12:00;97459.31;;;18.41;100.00
17635;BME280;8936;49.010;12.120;2023-05-10T10:14:27;97446.88;;;18.49;100.00
17635;BME280;8936;49.010;12.120;2023-05-10T10:16:54;97452.00;;;18.50;100.00
17635;BME280;8936;49.010;12.120;2023-05-10T10:19:21;97458.84;;;18.39;100.00
17635;BME280;8936;49.010;12.120;2023-05-10T10:21:47;97446.25;;;18.52;100.00
17635;BME280;8936;49.010;12.120;2023-05-10T10:24:14;97458.78;;;18.48;100.00
17635;BME280;8936;49.010;12.120;2023-05-10T10:26:42;97449.78;;;18.44;100.00
17635;BME280;8936;49.010;12.120;2023-05-10T10:29:16;97446.41;;;18.47;100.00
17635;BME280;8936;49.010;12.120;2023-05-10T10:31:46;97453.31;;;18.27;100.00
17635;BME280;8936;49.010;12.120;2023-05-10T10:34:17;97449.00;;;18.34;100.00
17635;BME280;8936;49.010;12.120;2023-05-10T10:36:47;97445.59;;;18.55;100.00
17635;BME280;8936;49.010;12.120;2023-05-10T10:39:15;97452.69;;;18.68;100.00
17635;BME280;8936;49.010;12.120;2023-05-10T10:41:50;97443.28;;;18.74;100.00
17635;BME280;8936;49.010;12.120;2023-05-10T10:44:27;97434.31;;;18.53;100.00
17635;BME280;8936;49.010;12.120;2023-05-10T10:47:03;97429.25;;;18.80;100.00
17635;BME280;8936;49.010;12.120;2023-05-10T10:49:34;97433.44;;;18.69;100.00
17635;BME280;8936;49.010;12.120;2023-05-10T10:52:13;97432.91;;;18.76;100.00
17635;BME280;8936;49.010;12.120;2023-05-10T10:54:39;97425.47;;;18.73;100.00
17635;BME280;8936;49.010;12.120;2023-05-10T10:57:11;97417.41;;;18.64;100.00
17635;BME280;8936;49.010;12.120;2023-05-10T10:59:41;97418.66;;;18.67;100.00
17635;BME280;8936;49.010;12.120;2023-05-10T11:02:08;97421.94;;;18.81;100.00
17635;BME280;8936;49.010;12.120;2023-05-10T11:04:41;97424.88;;;18.88;100.00
17635;BME280;8936;49.010;12.120;2023-05-10T11:07:16;97420.19;;;18.76;100.00
17635;BME280;8936;49.010;12.120;2023-05-10T11:09:43;97412.50;;;18.87;100.00
17635;BME280;8936;49.010;12.120;2023-05-10T11:12:11;97414.53;;;18.90;100.00
17635;BME280;8936;49.010;12.120;2023-05-10T11:14:37;97418.06;;;18.82;100.00
17635;BME280;8936;49.010;12.120;2023-05-10T11:22:27;97412.78;;;18.65;100.00
17635;BME280;8936;49.010;12.120;2023-05-10T11:24:57;97416.97;;;18.83;100.00
17635;BME280;8936;49.010;12.120;2023-05-10T11:27:25;97408.47;;;18.93;100.00
17635;BME280;8936;49.010;12.120;2023-05-10T11:29:51;97412.88;;;18.77;100.00
17635;BME280;8936;49.010;12.120;2023-05-10T11:32:18;97415.47;;;18.94;100.00
17635;BME280;8936;49.010;12.120;2023-05-10T11:34:46;97409.28;;;18.94;100.00
17635;BME280;8936;49.010;12.120;2023-05-10T11:37:13;97407.16;;;18.99;100.00
17635;BME280;8936;49.010;12.120;2023-05-10T11:39:45;97408.81;;;19.12;100.00
17635;BME280;8936;49.010;12.120;2023-05-10T11:42:12;97408.88;;;19.24;100.00
17635;BME280;8936;49.010;12.120;2023-05-10T11:44:39;97407.28;;;19.23;100.00
17635;BME280;8936;49.010;12.120;2023-05-10T11:47:07;97415.22;;;19.08;100.00
17635;BME280;8936;49.010;12.120;2023-05-10T11:49:33;97412.63;;;19.11;100.00
17635;BME280;8936;49.010;12.120;2023-05-10T11:52:05;97413.44;;;19.12;100.00
17635;BME280;8936;49.010;12.120;2023-05-10T11:54:32;97405.03;;;19.25;100.00
17635;BME280;8936;49.010;12.120;2023-05-10T11:56:59;97409.66;;;19.04;100.00
17635;BME280;8936;49.010;12.120;2023-05-10T11:59:26;97413.75;;;19.10;100.00
17635;BME280;8936;49.010;12.120;2023-05-10T12:01:53;97408.16;;;19.15;100.00
17635;BME280;8936;49.010;12.120;2023-05-10T12:04:20;97411.91;;;19.23;100.00
17635;BME280;8936;49.010;12.120;2023-05-10T12:06:46;97410.38;;;19.13;100.00
17635;BME280;8936;49.010;12.120;2023-05-10T12:09:13;97419.09;;;19.19;100.00
17635;BME280;8936;49.010;12.120;2023-05-10T12:11:40;97416.94;;;19.12;100.00
17635;BME280;8936;49.010;12.120;2023-05-10T12:14:07;97411.00;;;19.39;100.00
17635;BME280;8936;49.010;12.120;2023-05-10T12:16:34;97404.63;;;19.35;100.00
17635;BME280;8936;49.010;12.120;2023-05-10T12:19:03;97410.06;;;19.35;100.00
17635;BME280;8936;49.010;12.120;2023-05-10T12:21:30;97409.38;;;19.38;100.00
17635;BME280;8936;49.010;12.120;2023-05-10T12:23:59;97405.44;;;19.57;100.00
17635;BME280;8936;49.010;12.120;2023-05-10T12:26:25;97418.06;;;19.53;100.00
17635;BME280;8936;49.010;12.120;2023-05-10T12:28:54;97416.00;;;19.29;100.00
17635;BME280;8936;49.010;12.120;2023-05-10T12:31:20;97415.03;;;19.33;100.00
17635;BME280;8936;49.010;12.120;2023-05-10T12:33:46;97417.41;;;19.14;100.00
17635;BME280;8936;49.010;12.120;2023-05-10T12:36:15;97427.09;;;19.15;100.00
17635;BME280;8936;49.010;12.120;2023-05-10T12:38:43;97428.06;;;18.90;100.00
17635;BME280;8936;49.010;12.120;2023-05-10T12:41:14;97432.97;;;18.67;100.00
17635;BME280;8936;49.010;12.120;2023-05-10T12:43:40;97446.06;;;18.48;100.00
17635;BME280;8936;49.010;12.120;2023-05-10T12:46:07;97447.09;;;18.35;100.00
17635;BME280;8936;49.010;12.120;2023-05-10T12:48:33;97447.34;;;18.04;100.00
17635;BME280;8936;49.010;12.120;2023-05-10T12:51:00;97451.19;;;18.03;100.00
17635;BME280;8936;49.010;12.120;2023-05-10T12:53:28;97456.44;;;17.91;100.00
17635;BME280;8936;49.010;12.120;2023-05-10T12:55:54;97450.72;;;17.93;100.00
17635;BME280;8936;49.010;12.120;2023-05-10T12:58:21;97450.19;;;18.08;100.00
17635;BME280;8936;49.010;12.120;2023-05-10T13:00:47;97456.09;;;18.10;100.00